Allensville, PA

5:42 AM EDT on September 18, 2014 (GMT -0400)
South Side | Change Station
CLOSE
Current Station
Personal Weather Station
Location: Lewistown, PA
Elevation: 486 ft
Nearby Weather Stations

Elev 486 ft 40.59 °N, 77.57 °W | Updated 4 seconds ago

Mostly Cloudy
Mostly Cloudy
50.6 °F
Feels Like 50.6 °F
N
0.0
Wind Variable Wind from North
Gusts 1.6 mph

Today
High -- | Low -- °F
--% Chance of Precip.
Yesterday
High -- | Low -- °F
Precip. -- in
6:54 AM 7:14 PM
Waning Crescent, 28% visible
Pressure 30.00 in
Visibility 5.0 miles
Clouds Mostly Cloudy 6000 ft
Mostly Cloudy 9000 ft
Dew Point 46 °F
Humidity 83%
Rainfall 0.00 in
Snow Depth Not available.
UV 0 out of 12
Pollen 3.40 out of 12
Air Quality Not available.
Flu Activity Not available.
METAR KUNV 180935Z AUTO 00000KT 5SM BR BKN060 BKN090 09/09 A3000 RMK AO2 T00900087

More Conditions Fewer Conditions

Pressure 30.00 in
Visibility 5.0 miles
Clouds Mostly Cloudy 6000 ft
Mostly Cloudy 9000 ft
Dew Point 46 °F
Humidity 83%
Rainfall 0.00 in
Snow Depth Not available.
UV 0 out of 12
Pollen 3.40 out of 12
Air Quality Not available.
Flu Activity Not available.
METAR KUNV 180935Z AUTO 00000KT 5SM BR BKN060 BKN090 09/09 A3000 RMK AO2 T00900087

More Conditions Fewer Conditions

10-Day Weather Forecast

Almanac

Astronomy

Sep. 18, 2014 Rise Set
Actual Time 6:54 AM EDT 7:14 PM EDT
Civil Twilight 6:27 AM EDT 7:42 PM EDT
Nautical Twilight 5:54 AM EDT 8:14 PM EDT
Astronomical Twilight 5:22 AM EDT 8:46 PM EDT
Moon 1:43 AM EDT 4:05 PM EDT
Length of Visible Light 13h 14m
Length of Day
12h 20m
Tomorrow will be 2m 40s shorter.
Waning Crescent, 28% of the Moon is Illuminated
Today
Waning Crescent
Sep 24
New
Oct 1
First Quarter
Oct 8
Full
Oct 15
Last Quarter

Today's Extremes

State Highs State Lows

Community

WunderPhotos

Upload Photos

1,754,312 photos uploaded!

Nearby

Snow Depth

Station Depth Elevation
No new snow has been reported.

Earthquake Activity

City Distance Mag. Time & Date
No recent earthquake activity has been reported nearby.
Minimum magnitude displayed is 2.5.

Coastal Water Temperatures

Place Temperature
No Stations Reporting

Nearby Weather Stations